Time;durP1;ratioP1;P1;durP2;ratioP2;P2;SDS_P1;SDS_P2;PMS_P1;PMS_P2;Temp;Humidity;BMP_temperature;BMP_pressure;BME280_temperature;BME280_humidity;BME280_pressure;Samples;Min_cycle;Max_cycle;Signal;HPM_P1;HPM_P2
2023/10/19 00:00:22;;;;;;;13.07;6.63;;;;;;;6.50;100.00;99930.84;7371186;19;20778;-39
2023/10/19 00:02:53;;;;;;;15.50;7.20;;;;;;;6.55;100.00;99921.69;7390696;19;20482;-39
2023/10/19 00:05:26;;;;;;;16.93;7.83;;;;;;;6.53;100.00;99907.91;7371466;19;20431;-39
2023/10/19 00:07:57;;;;;;;15.70;7.60;;;;;;;6.53;100.00;99900.22;7394550;19;20415;-40
2023/10/19 00:10:29;;;;;;;18.87;9.67;;;;;;;6.50;100.00;99897.53;7371215;19;20971;-40
2023/10/19 00:13:00;;;;;;;22.13;10.13;;;;;;;6.47;100.00;99884.59;7393560;19;20422;-39
2023/10/19 00:15:31;;;;;;;15.27;7.10;;;;;;;6.48;100.00;99883.78;7371747;19;20761;-40
2023/10/19 00:18:05;;;;;;;16.87;8.40;;;;;;;6.45;100.00;99878.50;7394005;19;20763;-39
2023/10/19 00:20:50;;;;;;;21.07;8.70;;;;;;;6.50;100.00;99869.31;7371001;19;20399;-39
2023/10/19 00:23:21;;;;;;;14.20;7.00;;;;;;;6.50;100.00;99874.44;7392918;19;20430;-38
2023/10/19 00:25:52;;;;;;;21.17;9.73;;;;;;;6.50;100.00;99865.91;7371283;19;20403;-39
2023/10/19 00:28:22;;;;;;;16.10;6.93;;;;;;;6.48;100.00;99864.13;7392289;19;20421;-39
2023/10/19 00:30:53;;;;;;;12.13;7.13;;;;;;;6.47;100.00;99852.13;7370848;19;20427;-41
2023/10/19 00:33:28;;;;;;;14.20;7.10;;;;;;;6.48;100.00;99858.16;7391866;19;20947;-39
2023/10/19 00:36:07;;;;;;;13.60;7.40;;;;;;;6.45;100.00;99842.63;7371737;19;20426;-40
2023/10/19 00:38:47;;;;;;;12.47;6.83;;;;;;;6.46;100.00;99845.25;7392949;19;20411;-41
2023/10/19 00:41:24;;;;;;;14.93;7.10;;;;;;;6.43;100.00;99834.88;7367249;19;20443;-38
2023/10/19 00:44:03;;;;;;;14.77;7.70;;;;;;;6.42;100.00;99839.94;7393539;19;20403;-39
2023/10/19 00:46:42;;;;;;;16.10;7.60;;;;;;;6.46;100.00;99831.59;7370466;19;20415;-41
2023/10/19 00:49:14;;;;;;;17.93;7.67;;;;;;;6.46;100.00;99834.16;7393495;19;20391;-39
2023/10/19 00:51:53;;;;;;;14.27;6.77;;;;;;;6.45;100.00;99833.25;7369159;19;20414;-39
2023/10/19 00:54:31;;;;;;;15.83;6.80;;;;;;;6.40;100.00;99832.19;7394764;19;20406;-40
2023/10/19 00:57:06;;;;;;;16.40;7.80;;;;;;;6.40;100.00;99815.94;7370424;19;20504;-39
2023/10/19 00:59:43;;;;;;;15.20;7.53;;;;;;;6.43;100.00;99822.06;7393660;19;20435;-39
2023/10/19 01:02:28;;;;;;;18.20;8.03;;;;;;;6.46;100.00;99818.78;7367825;19;20484;-41
2023/10/19 01:05:02;;;;;;;15.00;7.57;;;;;;;6.42;100.00;99811.75;7394375;19;20408;-39
2023/10/19 01:07:34;;;;;;;14.37;7.60;;;;;;;6.41;100.00;99810.84;7371243;19;20430;-39
2023/10/19 01:10:07;;;;;;;14.80;7.47;;;;;;;6.38;100.00;99805.63;7393600;19;20779;-39
2023/10/19 01:12:38;;;;;;;13.53;6.80;;;;;;;6.40;100.00;99803.13;7365114;19;20992;-40
2023/10/19 01:15:16;;;;;;;17.10;7.73;;;;;;;6.41;100.00;99805.72;7394577;19;21055;-40
2023/10/19 01:17:51;;;;;;;13.07;7.50;;;;;;;6.39;100.00;99796.22;7371830;19;20446;-38
2023/10/19 01:20:34;;;;;;;24.70;9.70;;;;;;;6.39;100.00;99789.44;7369490;19;20454;-40
2023/10/19 01:23:20;;;;;;;18.93;8.00;;;;;;;6.39;100.00;99791.09;7392316;19;20411;-40
2023/10/19 01:25:59;;;;;;;14.63;7.10;;;;;;;6.41;100.00;99785.22;7369822;19;20403;-39
2023/10/19 01:28:42;;;;;;;13.30;6.53;;;;;;;6.43;100.00;99785.31;7391240;19;20407;-39
2023/10/19 01:31:22;;;;;;;14.00;7.57;;;;;;;6.43;100.00;99772.50;7367277;19;20439;-38
2023/10/19 01:33:55;;;;;;;16.80;7.60;;;;;;;6.43;100.00;99772.50;7393049;19;20439;-39
2023/10/19 01:36:27;;;;;;;13.20;6.83;;;;;;;6.45;100.00;99776.00;7368640;19;20416;-41
2023/10/19 01:39:01;;;;;;;13.70;7.47;;;;;;;6.47;100.00;99774.38;7391320;19;20838;-40
2023/10/19 01:41:30;;;;;;;15.40;8.20;;;;;;;6.50;100.00;99763.41;7365726;19;20435;-39
2023/10/19 01:44:04;;;;;;;19.40;7.97;;;;;;;6.50;100.00;99758.28;7392461;19;20411;-38
2023/10/19 01:46:33;;;;;;;15.13;7.33;;;;;;;6.48;100.00;99747.94;7368282;19;21014;-38
2023/10/19 01:49:04;;;;;;;15.37;6.93;;;;;;;6.47;100.00;99749.63;7391953;19;20407;-40
2023/10/19 01:51:36;;;;;;;11.73;6.37;;;;;;;6.46;100.00;99741.88;7367944;19;20786;-40
2023/10/19 01:54:09;;;;;;;16.40;7.00;;;;;;;6.48;100.00;99727.44;7394289;19;20482;-41
2023/10/19 01:56:38;;;;;;;21.97;11.03;;;;;;;6.50;100.00;99730.94;7368466;19;21066;-40
2023/10/19 01:59:09;;;;;;;15.23;7.83;;;;;;;6.51;100.00;99734.38;7393867;19;20414;-39
2023/10/19 02:01:37;;;;;;;16.60;7.60;;;;;;;6.55;100.00;99731.13;7366982;19;21055;-38
2023/10/19 02:04:08;;;;;;;15.60;8.23;;;;;;;6.54;100.00;99720.00;7391370;19;20483;-38
2023/10/19 02:06:38;;;;;;;16.30;8.03;;;;;;;6.51;100.00;99717.31;7367743;19;20415;-42
2023/10/19 02:09:17;;;;;;;13.53;7.70;;;;;;;6.52;100.00;99716.53;7391627;19;20407;-39
2023/10/19 02:11:46;;;;;;;16.07;8.27;;;;;;;6.55;100.00;99705.50;7367640;19;20419;-39
2023/10/19 02:14:18;;;;;;;14.20;7.23;;;;;;;6.56;100.00;99704.72;7389744;19;20560;-39
2023/10/19 02:16:51;;;;;;;16.07;7.43;;;;;;;6.60;100.00;99704.88;7368004;19;20970;-39
2023/10/19 02:19:20;;;;;;;16.37;8.27;;;;;;;6.58;100.00;99703.97;7390035;19;20455;-39
2023/10/19 02:21:50;;;;;;;13.97;7.60;;;;;;;6.57;100.00;99699.63;7367547;19;20430;-40
2023/10/19 02:24:20;;;;;;;15.53;7.00;;;;;;;6.58;100.00;99701.41;7390788;19;20475;-40
2023/10/19 02:26:53;;;;;;;14.00;7.60;;;;;;;6.60;100.00;99707.44;7371982;19;20439;-39
2023/10/19 02:29:21;;;;;;;16.30;7.90;;;;;;;6.60;100.00;99701.44;7397085;19;21263;-40
2023/10/19 02:31:53;;;;;;;15.33;7.30;;;;;;;6.61;100.00;99706.63;7375326;19;20423;-40
2023/10/19 02:34:20;;;;;;;15.43;8.23;;;;;;;6.62;100.00;99713.50;7403223;19;20488;-39
2023/10/19 02:36:50;;;;;;;19.27;8.77;;;;;;;6.67;100.00;99707.69;7378777;19;20419;-39
2023/10/19 02:39:27;;;;;;;13.97;7.00;;;;;;;6.69;100.00;99706.94;7398974;19;20770;-39
2023/10/19 02:41:55;;;;;;;16.30;7.80;;;;;;;6.67;100.00;99711.13;7376016;19;20506;-38
2023/10/19 02:44:26;;;;;;;15.37;7.67;;;;;;;6.69;100.00;99706.94;7401136;19;20422;-39
2023/10/19 02:46:58;;;;;;;21.00;9.40;;;;;;;6.69;100.00;99708.63;7378940;19;20423;-38
2023/10/19 02:49:30;;;;;;;20.63;10.10;;;;;;;6.68;100.00;99727.38;7399635;19;20431;-40
2023/10/19 02:52:02;;;;;;;22.23;10.37;;;;;;;6.73;100.00;99713.06;7377779;19;20427;-39
2023/10/19 02:54:35;;;;;;;18.37;9.60;;;;;;;6.72;100.00;99726.72;7404161;19;20439;-39
2023/10/19 02:57:06;;;;;;;17.97;9.30;;;;;;;6.71;100.00;99728.38;7378594;19;20460;-39
2023/10/19 02:59:37;;;;;;;15.60;7.70;;;;;;;6.72;100.00;99729.28;7400111;19;20431;-39
2023/10/19 03:02:16;;;;;;;18.80;9.10;;;;;;;6.73;100.00;99726.75;7377654;19;20423;-41
2023/10/19 03:04:45;;;;;;;16.47;8.47;;;;;;;6.74;100.00;99717.38;7400846;19;20844;-40
2023/10/19 03:07:15;;;;;;;20.93;8.93;;;;;;;6.78;100.00;99714.16;7377444;19;20906;-39
2023/10/19 03:09:48;;;;;;;23.97;10.73;;;;;;;6.81;100.00;99716.81;7399842;19;20463;-41
2023/10/19 03:12:19;;;;;;;24.90;9.23;;;;;;;6.77;100.00;99717.50;7377002;19;20490;-39
2023/10/19 03:14:47;;;;;;;17.50;8.20;;;;;;;6.76;100.00;99705.50;7402130;19;20391;-39
2023/10/19 03:17:18;;;;;;;17.50;7.77;;;;;;;6.78;100.00;99709.03;7376307;19;20429;-40
2023/10/19 03:19:46;;;;;;;17.57;8.03;;;;;;;6.81;100.00;99709.13;7396492;19;20439;-38
2023/10/19 03:22:17;;;;;;;25.60;11.93;;;;;;;6.84;100.00;99704.13;7372328;19;20451;-40
2023/10/19 03:24:46;;;;;;;39.93;15.90;;;;;;;6.81;100.00;99698.88;7396427;19;20411;-39
2023/10/19 03:27:18;;;;;;;17.93;9.33;;;;;;;6.83;100.00;99699.78;7372872;19;20507;-41
2023/10/19 03:29:47;;;;;;;17.87;8.53;;;;;;;6.84;100.00;99698.13;7396246;19;20816;-39
2023/10/19 03:32:21;;;;;;;18.47;8.83;;;;;;;6.86;100.00;99699.94;7372235;19;20843;-39
2023/10/19 03:34:55;;;;;;;16.63;8.10;;;;;;;6.84;100.00;99704.13;7395596;19;20479;-38
2023/10/19 03:37:25;;;;;;;19.87;9.40;;;;;;;6.85;100.00;99699.88;7372702;19;20440;-41
2023/10/19 03:39:58;;;;;;;16.80;8.27;;;;;;;6.88;100.00;99711.13;7396258;19;20447;-39
2023/10/19 03:42:32;;;;;;;16.07;7.33;;;;;;;6.91;100.00;99710.38;7370637;19;20447;-39
2023/10/19 03:45:07;;;;;;;18.43;8.63;;;;;;;6.92;100.00;99698.44;7395708;19;20415;-41
2023/10/19 03:47:38;;;;;;;14.80;8.30;;;;;;;6.94;100.00;99709.63;7374198;19;20430;-39
2023/10/19 03:50:14;;;;;;;21.50;10.00;;;;;;;6.91;100.00;99704.38;7395656;19;20446;-39
2023/10/19 03:52:45;;;;;;;16.93;7.83;;;;;;;6.89;100.00;99696.63;7373418;19;20540;-39
2023/10/19 03:55:19;;;;;;;16.83;8.20;;;;;;;6.95;100.00;99701.09;7371602;19;20423;-38
2023/10/19 03:57:54;;;;;;;17.13;8.27;;;;;;;6.96;100.00;99695.16;7394070;19;20404;-38
2023/10/19 04:00:26;;;;;;;15.63;8.10;;;;;;;6.96;100.00;99695.16;7371279;19;21006;-40
2023/10/19 04:02:58;;;;;;;19.63;8.07;;;;;;;6.88;100.00;99692.31;7393508;19;20395;-41
2023/10/19 04:05:28;;;;;;;19.53;8.50;;;;;;;6.83;100.00;99679.28;7371737;19;20424;-39
2023/10/19 04:07:58;;;;;;;17.30;8.70;;;;;;;6.84;100.00;99668.25;7394260;19;20399;-41
2023/10/19 04:10:38;;;;;;;23.47;8.83;;;;;;;6.83;100.00;99655.34;7371303;19;20443;-41
2023/10/19 04:13:09;;;;;;;16.73;8.50;;;;;;;6.78;100.00;99651.72;7394254;19;20403;-40
2023/10/19 04:15:43;;;;;;;16.47;8.10;;;;;;;6.68;100.00;99629.97;7373357;19;20459;-37
2023/10/19 04:18:12;;;;;;;21.43;9.80;;;;;;;6.59;100.00;99600.63;7394359;19;20406;-40
2023/10/19 04:20:54;;;;;;;19.17;9.20;;;;;;;6.53;100.00;99586.69;7371046;19;20490;-39
2023/10/19 04:23:26;;;;;;;19.57;8.53;;;;;;;6.48;100.00;99577.09;7392659;19;20402;-39
2023/10/19 04:26:05;;;;;;;20.57;9.70;;;;;;;6.43;100.00;99560.69;7371881;19;20427;-41
2023/10/19 04:28:38;;;;;;;15.63;8.87;;;;;;;6.36;100.00;99551.00;7394930;19;20419;-39
2023/10/19 04:31:13;;;;;;;17.47;9.00;;;;;;;6.21;100.00;99543.59;7370581;19;20431;-41
2023/10/19 04:33:45;;;;;;;16.90;8.90;;;;;;;6.19;100.00;99529.84;7393008;19;21251;-42
2023/10/19 04:36:19;;;;;;;18.87;8.53;;;;;;;6.19;100.00;99517.94;7369619;19;20484;-40
2023/10/19 04:38:49;;;;;;;17.23;9.03;;;;;;;6.18;100.00;99515.28;7395208;19;20966;-39
2023/10/19 04:41:22;;;;;;;19.60;9.73;;;;;;;6.14;100.00;99498.03;7367715;19;20419;-39
2023/10/19 04:43:52;;;;;;;15.87;9.20;;;;;;;6.10;100.00;99491.06;7394519;19;20435;-39
2023/10/19 04:46:22;;;;;;;23.77;11.17;;;;;;;6.05;100.00;99488.34;7369560;19;20418;-39
2023/10/19 04:48:52;;;;;;;31.40;9.30;;;;;;;5.99;100.00;99478.69;7391980;19;20771;-39
2023/10/19 04:51:21;;;;;;;20.57;10.17;;;;;;;5.94;100.00;99531.38;7368403;19;20431;-38
2023/10/19 04:53:51;;;;;;;19.90;9.00;;;;;;;5.97;100.00;99526.41;7393045;19;20407;-41
2023/10/19 04:56:24;;;;;;;17.67;9.53;;;;;;;5.93;100.00;99516.84;7369457;19;20431;-39
2023/10/19 04:58:54;;;;;;;20.33;9.43;;;;;;;5.84;100.00;99537.81;7393207;19;20482;-39
2023/10/19 05:01:24;;;;;;;22.83;9.87;;;;;;;5.83;100.00;99607.75;7368520;19;20509;-39
2023/10/19 05:03:53;;;;;;;21.60;10.27;;;;;;;5.80;100.00;99677.59;7385060;19;20459;-41
2023/10/19 05:06:24;;;;;;;18.00;9.10;;;;;;;5.78;100.00;99738.09;7367680;19;21113;-41
2023/10/19 05:08:53;;;;;;;19.37;9.00;;;;;;;5.75;100.00;99807.06;7392471;19;20404;-41
2023/10/19 05:11:26;;;;;;;21.63;10.03;;;;;;;5.71;100.00;99865.72;7368014;19;20427;-42
2023/10/19 05:13:55;;;;;;;23.70;11.57;;;;;;;5.69;100.00;99927.09;7386468;19;20606;-41
2023/10/19 05:16:26;;;;;;;17.30;9.60;;;;;;;5.69;100.00;99970.59;7370590;19;20841;-42
2023/10/19 05:18:56;;;;;;;24.23;10.80;;;;;;;5.68;100.00;99979.09;7392294;19;20420;-41
2023/10/19 05:21:25;;;;;;;19.33;9.37;;;;;;;5.69;100.00;100009.00;7367692;19;20894;-41
2023/10/19 05:23:55;;;;;;;21.10;10.43;;;;;;;5.71;100.00;100050.91;7392397;19;20449;-41
2023/10/19 05:26:27;;;;;;;18.63;9.37;;;;;;;5.75;100.00;100080.97;7369051;19;20443;-42
2023/10/19 05:28:57;;;;;;;22.60;11.70;;;;;;;5.67;100.00;100095.06;7392038;19;20479;-41
2023/10/19 05:31:28;;;;;;;18.80;10.60;;;;;;;5.63;100.00;100121.31;7367074;19;20426;-43
2023/10/19 05:33:58;;;;;;;24.27;10.80;;;;;;;5.61;100.00;100138.28;7391710;19;20451;-41
2023/10/19 05:36:27;;;;;;;20.30;10.20;;;;;;;5.64;100.00;100151.25;7368819;19;20447;-41
2023/10/19 05:38:57;;;;;;;19.67;9.97;;;;;;;5.64;100.00;100152.09;7391035;19;20954;-41
2023/10/19 05:41:31;;;;;;;21.40;10.80;;;;;;;5.62;100.00;100157.94;7365442;19;20498;-42
2023/10/19 05:44:00;;;;;;;25.97;11.37;;;;;;;5.61;100.00;100146.84;7391095;19;20439;-41
2023/10/19 05:46:30;;;;;;;28.10;12.20;;;;;;;5.61;100.00;100139.16;7367645;19;20431;-41
2023/10/19 05:49:03;;;;;;;26.43;12.23;;;;;;;5.60;100.00;100128.84;7385584;19;20407;-42
2023/10/19 05:51:33;;;;;;;47.30;19.13;;;;;;;5.65;100.00;100124.84;7368606;19;20503;-42
2023/10/19 05:54:04;;;;;;;25.20;11.20;;;;;;;5.55;100.00;100128.59;7391528;19;20523;-41
2023/10/19 05:56:36;;;;;;;22.33;11.40;;;;;;;5.52;100.00;100121.66;7368340;19;20514;-44
2023/10/19 05:59:06;;;;;;;21.50;10.80;;;;;;;5.56;100.00;100121.78;7391429;19;20775;-42
2023/10/19 06:01:36;;;;;;;29.53;11.90;;;;;;;5.62;100.00;100117.00;7369525;19;20861;-43
2023/10/19 06:04:07;;;;;;;37.33;17.00;;;;;;;5.64;100.00;100116.28;7397657;19;20902;-40
2023/10/19 06:06:37;;;;;;;36.03;13.53;;;;;;;5.76;100.00;100105.78;7374911;19;20422;-42
2023/10/19 06:09:08;;;;;;;35.00;16.43;;;;;;;5.82;100.00;100102.66;7397986;19;20399;-41
2023/10/19 06:11:42;;;;;;;26.10;12.63;;;;;;;5.77;100.00;100091.28;7372798;19;20431;-41
2023/10/19 06:14:12;;;;;;;28.00;12.87;;;;;;;5.71;100.00;100102.13;7397931;19;20442;-42
2023/10/19 06:16:42;;;;;;;27.97;13.53;;;;;;;5.71;100.00;100094.44;7371937;19;20884;-41
2023/10/19 06:19:12;;;;;;;25.40;12.20;;;;;;;5.80;100.00;100096.59;7397641;19;20407;-42
2023/10/19 06:21:42;;;;;;;28.77;12.37;;;;;;;5.82;100.00;100084.72;7372163;19;20463;-43
2023/10/19 06:24:14;;;;;;;27.40;12.73;;;;;;;5.80;100.00;100074.41;7395835;19;20971;-41
2023/10/19 06:26:47;;;;;;;26.60;13.33;;;;;;;5.76;100.00;100064.84;7374522;19;20444;-42
2023/10/19 06:29:16;;;;;;;22.30;12.13;;;;;;;5.73;100.00;100056.09;7396329;19;20395;-41
2023/10/19 06:31:46;;;;;;;19.40;10.03;;;;;;;5.70;100.00;100061.97;7373737;19;20431;-41
2023/10/19 06:34:17;;;;;;;19.83;10.67;;;;;;;5.70;100.00;100073.88;7396174;19;20874;-42
2023/10/19 06:36:46;;;;;;;20.93;10.23;;;;;;;5.66;100.00;100083.09;7374421;19;20415;-41
2023/10/19 06:39:17;;;;;;;19.27;9.93;;;;;;;5.65;100.00;100086.44;7395593;19;20974;-41
2023/10/19 06:41:50;;;;;;;21.90;10.27;;;;;;;5.70;100.00;100094.34;7372672;19;20522;-42
2023/10/19 06:44:19;;;;;;;23.83;10.53;;;;;;;5.62;100.00;100081.16;7395862;19;20538;-41
2023/10/19 06:46:49;;;;;;;22.33;11.30;;;;;;;5.59;100.00;100092.13;7373971;19;20430;-40
2023/10/19 06:49:19;;;;;;;19.77;10.23;;;;;;;5.54;100.00;100097.00;7396576;19;20404;-41
2023/10/19 06:51:48;;;;;;;26.23;11.87;;;;;;;5.53;100.00;100102.94;7373534;19;20502;-42
2023/10/19 06:54:18;;;;;;;22.73;10.43;;;;;;;5.50;100.00;100097.63;7395646;19;20859;-41
2023/10/19 06:56:50;;;;;;;30.33;13.60;;;;;;;5.55;100.00;100103.00;7374302;19;20426;-42
2023/10/19 06:59:20;;;;;;;22.80;11.97;;;;;;;5.52;100.00;100105.41;7395574;19;20840;-40
2023/10/19 07:01:50;;;;;;;23.40;11.43;;;;;;;5.56;100.00;100096.19;7372670;19;20438;-41
2023/10/19 07:04:19;;;;;;;37.17;15.47;;;;;;;5.55;100.00;100095.34;7395058;19;20428;-40
2023/10/19 07:06:50;;;;;;;25.30;11.20;;;;;;;5.60;100.00;100101.56;7373417;19;20990;-41
2023/10/19 07:09:21;;;;;;;22.60;11.13;;;;;;;5.57;100.00;100096.28;7393977;19;20950;-41
2023/10/19 07:11:54;;;;;;;18.47;10.60;;;;;;;5.56;100.00;100097.09;7372658;19;20434;-44
2023/10/19 07:14:25;;;;;;;22.77;10.93;;;;;;;5.58;100.00;100090.34;7392272;19;20518;-42
2023/10/19 07:16:54;;;;;;;21.90;11.13;;;;;;;5.57;100.00;100088.59;7371136;19;20494;-41
2023/10/19 07:19:24;;;;;;;23.00;11.20;;;;;;;5.55;100.00;100087.66;7394955;19;20395;-41
2023/10/19 07:21:57;;;;;;;19.70;10.47;;;;;;;5.48;100.00;100089.00;7372512;19;20420;-41
2023/10/19 07:24:27;;;;;;;22.63;11.40;;;;;;;5.51;100.00;100089.19;7396105;19;20550;-41
2023/10/19 07:27:07;;;;;;;26.47;10.67;;;;;;;5.52;100.00;100085.81;7372728;19;20506;-41
2023/10/19 07:29:51;;;;;;;24.23;9.90;;;;;;;5.50;100.00;100084.84;7396214;19;20403;-43
2023/10/19 07:32:21;;;;;;;24.43;11.07;;;;;;;5.53;100.00;100092.69;7371901;19;20426;-43
2023/10/19 07:34:51;;;;;;;21.67;11.17;;;;;;;5.55;100.00;100090.22;7396269;19;20475;-43
2023/10/19 07:37:21;;;;;;;20.90;10.40;;;;;;;5.54;100.00;100084.22;7373110;19;20797;-42
2023/10/19 07:39:52;;;;;;;26.73;12.87;;;;;;;5.52;100.00;100074.69;7396013;19;20488;-41
2023/10/19 07:42:24;;;;;;;26.53;12.60;;;;;;;5.56;100.00;100061.25;7370651;19;20970;-40
2023/10/19 07:44:54;;;;;;;24.37;11.57;;;;;;;5.56;100.00;100061.25;7395500;19;20399;-42
2023/10/19 07:47:23;;;;;;;24.23;12.53;;;;;;;5.51;100.00;100048.25;7373169;19;20433;-41
2023/10/19 07:49:56;;;;;;;27.53;11.33;;;;;;;5.58;100.00;100053.66;7395867;19;20480;-42
2023/10/19 07:52:26;;;;;;;27.30;12.53;;;;;;;5.61;100.00;100051.25;7371752;19;20423;-41
2023/10/19 07:54:55;;;;;;;22.20;11.63;;;;;;;5.56;100.00;100030.56;7397837;19;20442;-41
2023/10/19 07:57:29;;;;;;;24.20;11.93;;;;;;;5.52;100.00;100016.72;7372070;19;20853;-41
2023/10/19 07:59:59;;;;;;;25.27;11.97;;;;;;;5.56;100.00;100010.06;7396052;19;20479;-42
2023/10/19 08:02:29;;;;;;;25.93;11.53;;;;;;;5.52;100.00;100016.72;7371202;19;20424;-41
2023/10/19 08:05:00;;;;;;;21.40;11.80;;;;;;;5.56;100.00;100014.31;7397618;19;20415;-43
2023/10/19 08:07:30;;;;;;;24.20;11.00;;;;;;;5.52;100.00;100023.50;7372066;19;20936;-41
2023/10/19 08:10:00;;;;;;;23.43;11.13;;;;;;;5.50;100.00;100014.88;7397062;19;21290;-42
2023/10/19 08:12:33;;;;;;;24.13;12.40;;;;;;;5.50;100.00;100020.88;7368505;19;20420;-42
2023/10/19 08:15:03;;;;;;;28.33;12.27;;;;;;;5.52;100.00;100010.72;7393213;19;20435;-42
2023/10/19 08:17:33;;;;;;;23.77;12.80;;;;;;;5.53;100.00;100015.91;7370317;19;20427;-41
2023/10/19 08:20:08;;;;;;;25.83;11.57;;;;;;;5.47;100.00;100012.16;7395538;19;20414;-42
2023/10/19 08:22:39;;;;;;;24.80;13.33;;;;;;;5.51;100.00;100011.53;7371809;19;21151;-41
2023/10/19 08:25:14;;;;;;;23.60;11.23;;;;;;;5.44;100.00;100000.09;7392525;19;20404;-42
2023/10/19 08:27:49;;;;;;;28.60;12.53;;;;;;;5.50;100.00;99985.03;7374088;19;20452;-41
2023/10/19 08:30:20;;;;;;;23.23;11.23;;;;;;;5.42;100.00;99963.31;7373625;19;20741;-41
2023/10/19 08:32:54;;;;;;;26.80;13.10;;;;;;;5.42;100.00;99976.13;7392347;19;20442;-41
2023/10/19 08:35:27;;;;;;;24.40;11.53;;;;;;;5.43;100.00;99971.88;7370583;19;20407;-41
2023/10/19 08:37:57;;;;;;;25.17;11.60;;;;;;;5.37;100.00;99973.34;7392932;19;20407;-41
2023/10/19 08:40:28;;;;;;;22.10;10.97;;;;;;;5.41;100.00;99989.72;7369203;19;21509;-43
2023/10/19 08:43:01;;;;;;;25.50;12.67;;;;;;;5.39;100.00;100006.69;7392248;19;20435;-42
2023/10/19 08:45:31;;;;;;;23.27;12.00;;;;;;;5.40;100.00;100013.53;7371801;19;20433;-43
2023/10/19 08:48:02;;;;;;;25.70;12.90;;;;;;;5.43;100.00;100023.91;7390155;19;20415;-42
2023/10/19 08:50:33;;;;;;;22.83;11.10;;;;;;;5.39;100.00;100025.44;7371667;19;20384;-44
2023/10/19 08:53:04;;;;;;;20.47;10.77;;;;;;;5.41;100.00;100010.19;7393052;19;20448;-42
2023/10/19 08:55:35;;;;;;;26.60;13.23;;;;;;;5.34;100.00;100003.00;7371325;19;20391;-41
2023/10/19 08:58:22;;;;;;;26.67;12.40;;;;;;;5.35;100.00;99974.06;7392535;19;20414;-42
2023/10/19 09:00:54;;;;;;;25.10;13.60;;;;;;;5.33;100.00;99970.56;7370077;19;20470;-41
2023/10/19 09:03:26;;;;;;;25.33;12.30;;;;;;;5.29;100.00;99960.94;7389963;19;21017;-41
2023/10/19 09:05:56;;;;;;;27.13;12.77;;;;;;;5.31;100.00;99941.44;7369793;19;20478;-42
2023/10/19 09:08:38;;;;;;;25.63;12.77;;;;;;;5.32;100.00;99936.41;7391049;19;20411;-42
2023/10/19 09:11:11;;;;;;;26.60;12.20;;;;;;;5.26;100.00;99929.31;7369314;19;20395;-41
2023/10/19 09:13:51;;;;;;;26.70;13.67;;;;;;;5.30;100.00;99919.22;7390354;19;21041;-42
2023/10/19 09:16:23;;;;;;;30.33;13.67;;;;;;;5.39;100.00;99924.81;7367832;19;20422;-42
2023/10/19 09:18:54;;;;;;;28.27;13.60;;;;;;;5.32;100.00;99922.75;7394332;19;20411;-42
2023/10/19 09:21:27;;;;;;;28.70;13.70;;;;;;;5.33;100.00;99932.19;7367580;19;20496;-42
2023/10/19 09:23:58;;;;;;;32.03;13.77;;;;;;;5.32;100.00;99912.53;7391789;19;20443;-41
2023/10/19 09:26:28;;;;;;;28.60;13.67;;;;;;;5.27;100.00;99900.38;7367690;19;20494;-41
2023/10/19 09:29:00;;;;;;;27.73;14.20;;;;;;;5.35;100.00;99898.19;7391741;19;20418;-42
2023/10/19 09:31:30;;;;;;;28.37;13.60;;;;;;;5.39;100.00;99884.72;7367231;19;21078;-41
2023/10/19 09:34:03;;;;;;;31.10;14.90;;;;;;;5.43;100.00;99880.63;7391410;19;20451;-39
2023/10/19 09:36:33;;;;;;;31.23;14.10;;;;;;;5.42;100.00;99878.88;7373436;19;21013;-39
2023/10/19 09:39:02;;;;;;;25.70;13.03;;;;;;;5.41;100.00;99872.03;7398918;19;20408;-39
2023/10/19 09:41:33;;;;;;;25.67;13.20;;;;;;;5.39;100.00;99860.84;7373295;19;20425;-39
2023/10/19 09:44:10;;;;;;;28.17;13.90;;;;;;;5.38;100.00;99861.63;7398938;19;20505;-40
2023/10/19 09:46:41;;;;;;;30.67;15.63;;;;;;;5.37;100.00;99854.75;7374892;19;21067;-41
2023/10/19 09:49:13;;;;;;;30.20;15.23;;;;;;;5.44;100.00;99855.94;7398763;19;20411;-39
2023/10/19 09:51:44;;;;;;;24.83;13.27;;;;;;;5.40;100.00;99855.78;7374595;19;20837;-42
2023/10/19 09:54:39;;;;;;;29.83;14.20;;;;;;;5.46;100.00;99855.22;7397970;19;20431;-40
2023/10/19 09:57:16;;;;;;;34.33;15.50;;;;;;;5.49;100.00;99850.22;7375189;19;20427;-40
2023/10/19 09:59:52;;;;;;;27.97;14.00;;;;;;;5.45;100.00;99858.59;7398618;19;20427;-41
2023/10/19 10:02:22;;;;;;;37.30;15.83;;;;;;;5.48;100.00;99868.09;7374527;19;20509;-40
2023/10/19 10:04:57;;;;;;;24.53;13.37;;;;;;;5.48;100.00;99879.19;7401016;19;20411;-40
2023/10/19 10:07:27;;;;;;;30.73;14.30;;;;;;;5.52;100.00;99886.22;7374789;19;20541;-40
2023/10/19 10:10:11;;;;;;;27.77;15.20;;;;;;;5.51;100.00;99896.38;7399130;19;20787;-43
2023/10/19 10:12:41;;;;;;;26.70;13.20;;;;;;;5.51;100.00;99892.16;7376158;19;20554;-40
2023/10/19 10:15:16;;;;;;;27.07;14.23;;;;;;;5.56;100.00;99886.34;7401483;19;20411;-41
2023/10/19 10:17:53;;;;;;;26.43;13.87;;;;;;;5.58;100.00;99884.75;7376033;19;20993;-41
2023/10/19 10:20:34;;;;;;;25.27;12.90;;;;;;;5.65;100.00;99874.00;7373822;19;20403;-40
2023/10/19 10:23:21;;;;;;;26.50;13.63;;;;;;;5.67;100.00;99860.50;7396601;19;20791;-40
2023/10/19 10:25:53;;;;;;;24.77;13.30;;;;;;;5.69;100.00;99857.97;7374701;19;20438;-40
2023/10/19 10:28:24;;;;;;;33.50;13.87;;;;;;;5.67;100.00;99850.25;7396281;19;20403;-40
2023/10/19 10:31:21;;;;;;;28.40;12.93;;;;;;;5.67;100.00;99844.25;7373008;19;20998;-40
2023/10/19 10:33:54;;;;;;;24.47;11.47;;;;;;;5.70;100.00;99853.75;7396416;19;20439;-40
2023/10/19 10:36:26;;;;;;;26.17;13.87;;;;;;;5.72;100.00;99863.25;7373354;19;20785;-40
2023/10/19 10:39:05;;;;;;;23.80;13.00;;;;;;;5.70;100.00;99876.78;7396617;19;20754;-39
2023/10/19 10:41:35;;;;;;;34.83;15.00;;;;;;;5.66;100.00;99883.44;7371507;19;20431;-39
2023/10/19 10:44:05;;;;;;;23.37;12.60;;;;;;;5.68;100.00;99897.19;7394792;19;20861;-39
2023/10/19 10:46:37;;;;;;;25.23;13.17;;;;;;;5.75;100.00;99911.16;7373111;19;20610;-40
2023/10/19 10:49:11;;;;;;;23.23;11.63;;;;;;;5.78;100.00;99912.19;7396803;19;20771;-40
2023/10/19 10:51:42;;;;;;;24.23;12.23;;;;;;;5.80;100.00;99917.38;7372187;19;20412;-42
2023/10/19 10:54:13;;;;;;;24.53;12.17;;;;;;;5.86;100.00;99917.69;7397358;19;20447;-40
2023/10/19 10:56:44;;;;;;;25.53;12.10;;;;;;;5.87;100.00;99915.97;7372823;19;20423;-41
2023/10/19 10:59:17;;;;;;;28.50;13.83;;;;;;;5.84;100.00;99924.38;7397343;19;20403;-41
2023/10/19 11:01:50;;;;;;;25.80;12.53;;;;;;;5.82;100.00;99926.00;7372945;19;20421;-40
2023/10/19 11:04:19;;;;;;;23.97;13.40;;;;;;;5.86;100.00;99929.59;7395120;19;20515;-39
2023/10/19 11:06:55;;;;;;;24.70;13.17;;;;;;;5.86;100.00;99947.50;7373782;19;20834;-41
2023/10/19 11:09:24;;;;;;;22.40;12.00;;;;;;;5.85;100.00;99956.84;7395798;19;20435;-40
2023/10/19 11:11:54;;;;;;;26.20;12.83;;;;;;;5.85;100.00;99967.09;7372775;19;20437;-40
2023/10/19 11:14:25;;;;;;;27.43;13.43;;;;;;;5.78;100.00;99977.84;7396480;19;20518;-40
2023/10/19 11:16:57;;;;;;;27.73;13.30;;;;;;;5.81;100.00;99986.56;7373089;19;20497;-40
2023/10/19 11:19:40;;;;;;;24.63;12.90;;;;;;;5.86;100.00;99999.59;7397136;19;20399;-42
2023/10/19 11:22:13;;;;;;;23.00;10.97;;;;;;;5.83;100.00;100004.56;7372898;19;20437;-39
2023/10/19 11:24:43;;;;;;;26.17;13.97;;;;;;;5.84;100.00;100001.19;7395265;19;20934;-38
2023/10/19 11:27:12;;;;;;;19.70;12.07;;;;;;;5.86;100.00;100009.84;7373187;19;20419;-41
2023/10/19 11:29:56;;;;;;;29.97;13.50;;;;;;;5.87;100.00;100000.47;7394972;19;20471;-42
2023/10/19 11:32:28;;;;;;;27.70;14.17;;;;;;;5.84;100.00;100003.75;7373313;19;20419;-42
2023/10/19 11:35:01;;;;;;;21.87;11.20;;;;;;;5.88;100.00;99998.00;7398212;19;20435;-41
2023/10/19 11:37:31;;;;;;;23.70;13.50;;;;;;;5.87;100.00;99990.22;7372496;19;20427;-43
2023/10/19 11:40:00;;;;;;;27.30;11.73;;;;;;;5.90;100.00;99973.31;7396854;19;20424;-42
2023/10/19 11:42:30;;;;;;;24.13;13.37;;;;;;;5.90;100.00;99973.31;7369916;19;21088;-41